Flight Track Log - Related Links

Times and Time Zones

All times are in EDT time to prevent confusion due to time zone crossing. See the VET33 flight status page for this flight to view local times or setup timezone preferences in your user account.

Time Position Orientation Groundspeed Altitude Reporting Facility
EDT Latitude Longitude Course Direction KTS MPH feet Rate Location/Type
Wed 01:21:22 PM 28.1000 -80.6333 41° Northeast 68 78 500  Level Orlando TRACON
Wed 01:22:16 PM 28.1167 -80.6167 41° Northeast 92 106 1,200 750 Climbing Orlando TRACON
Wed 01:23:22 PM 28.1333 -80.5833 60° Northeast 110 127 2,000 595 Climbing Orlando TRACON
Wed 01:24:17 PM 28.1500 -80.5500 60° Northeast 116 133 2,400 650 Climbing Orlando TRACON
Wed 01:25:22 PM 28.1667 -80.5500 360° North 114 131 3,300 756 Climbing Orlando TRACON
Wed 01:26:16 PM 28.1833 -80.5833 300° West 117 135 3,900 661 Climbing Orlando TRACON
Wed 01:27:29 PM 28.2167 -80.6167 319° Northwest 115 132 4,700 678 Climbing Orlando TRACON
Wed 01:28:11 PM 28.2333 -80.6333 319° Northwest 113 130 5,200 667 Climbing Orlando TRACON
Wed 01:29:17 PM 28.2500 -80.6667 300° West 113 130 5,900 609 Climbing Orlando TRACON
Wed 01:30:29 PM 28.2833 -80.6833 336° Northwest 114 131 6,600 500 Climbing Orlando TRACON
Wed 01:31:29 PM 28.3167 -80.7000 336° Northwest 116 133 7,000 250 Climbing Orlando TRACON
Wed 01:32:29 PM 28.3500 -80.7167 336° Northwest 144 166 7,100  Climbing Orlando TRACON
Wed 01:33:29 PM 28.4000 -80.7333 344° North 169 194 7,000 -53 Descending Orlando TRACON
Wed 01:34:23 PM 28.4333 -80.7500 336° Northwest 166 191 7,000 53 Level Orlando TRACON
Wed 01:35:23 PM 28.4833 -80.7667 344° North 163 188 7,100 48 Climbing Orlando TRACON
Wed 01:36:29 PM 28.5167 -80.7833 336° Northwest 164 189 7,100  Level Orlando TRACON
Wed 01:37:30 PM 28.5667 -80.8167 330° Northwest 164 189 7,100  Level Orlando TRACON
Wed 01:38:30 PM 28.6000 -80.8333 336° Northwest 166 191 7,100  Level Orlando TRACON
Wed 01:39:18 PM 28.6333 -80.8500 336° Northwest 166 191 7,100  Level Orlando TRACON
Wed 01:40:36 PM 28.7000 -80.8667 348° North 167 192 7,100  Level Orlando TRACON
Wed 01:41:18 PM 28.7167 -80.8833 319° Northwest 166 191 7,100  Level Orlando TRACON
Wed 01:43:18 PM 28.8067 -80.9164 342° North 165 190 7,100  Level Jacksonville Center
Wed 01:44:18 PM 28.8508 -80.9344 340° North 167 192 7,100  Level Jacksonville Center
Wed 01:45:19 PM 28.8950 -80.9503 343° North 167 192 7,100  Level Jacksonville Center
Wed 01:46:20 PM 28.9433 -80.9731 338° Northwest 166 191 7,100  Level Jacksonville Center
Wed 01:47:21 PM 28.9853 -80.9867 344° North 166 191 7,100  Level Jacksonville Center
Wed 01:48:22 PM 29.0292 -81.0069 338° Northwest 166 191 7,100  Level Jacksonville Center
Wed 01:49:10 PM 29.0650 -81.0231 339° North 167 192 7,100  Level Jacksonville Center
Wed 01:50:17 PM 29.1111 -81.0389 343° North 165 190 7,100  Level Jacksonville Center
Wed 01:51:24 PM 29.1617 -81.0592 341° North 165 190 7,100 -45 Level Jacksonville Center
Wed 01:52:31 PM 29.2097 -81.0797 340° North 168 193 7,000  Descending Jacksonville Center
Wed 01:53:32 PM 29.2519 -81.0956 342° North 168 193 7,100  Climbing Jacksonville Center
Wed 01:54:39 PM 29.3042 -81.1161 341° North 165 190 7,000  Descending Jacksonville Center
Wed 01:55:46 PM 29.3567 -81.1319 345° North 164 189 7,100 47 Climbing Jacksonville Center
Wed 01:56:47 PM 29.4025 -81.1333 358° North 164 189 7,100  Level Jacksonville Center
Wed 01:57:47 PM 29.4444 -81.1444 347° North 164 189 7,100  Level Jacksonville Center
Wed 01:58:48 PM 29.4906 -81.1533 350° North 161 185 7,100  Level Jacksonville Center
Wed 01:59:37 PM 29.5283 -81.1575 355° North 163 188 7,100  Level Jacksonville Center
Wed 02:00:50 PM 29.5847 -81.1706 349° North 163 188 7,100  Level Jacksonville Center
Wed 02:01:51 PM 29.6286 -81.1747 355° North 164 189 7,100  Level Jacksonville Center
Wed 02:02:40 PM 29.6622 -81.1814 350° North 165 190 7,100  Level Jacksonville Center
Wed 02:03:07 PM 29.6853 -81.1881 346° North 162 186 7,100  Level Jacksonville Center
Wed 02:04:14 PM 29.7353 -81.1944 354° North 164 189 7,100  Level Jacksonville Center
Wed 02:05:21 PM 29.7856 -81.2056 349° North 166 191 7,100  Level Jacksonville Center
Wed 02:06:16 PM 29.8275 -81.2142 350° North 166 191 7,100  Level Jacksonville Center
Wed 02:07:17 PM 29.8736 -81.2231 351° North 165 190 7,100  Level Jacksonville Center
Wed 02:08:18 PM 29.9175 -81.2342 348° North 166 191 7,100  Level Jacksonville Center
Wed 02:09:19 PM 29.9656 -81.2456 348° North 169 194 7,100  Level Jacksonville Center
Wed 02:10:20 PM 30.0117 -81.2567 348° North 167 192 7,100  Level Jacksonville Center
Wed 02:11:21 PM 30.0578 -81.2631 353° North 171 197 7,100  Level Jacksonville Center
Wed 02:12:16 PM 30.1039 -81.2719 351° North 171 197 7,100  Level Jacksonville Center
Wed 02:13:17 PM 30.1500 -81.2881 343° North 171 197 7,100  Level Jacksonville Center
Wed 02:14:24 PM 30.2022 -81.2967 352° North 170 196 7,100  Level Jacksonville Center
Wed 02:15:25 PM 30.2503 -81.3081 348° North 171 197 7,100  Level Jacksonville Center
Wed 02:16:20 PM 30.2922 -81.3144 353° North 170 196 7,100  Level Jacksonville Center
Wed 02:17:27 PM 30.3447 -81.3281 347° North 171 197 7,100  Level Jacksonville Center
Wed 02:18:22 PM 30.3864 -81.3344 352° North 170 196 7,100  Level Jacksonville Center
Wed 02:18:40 PM 30.4053 -81.3414 342° North 169 194 7,100  Level Jacksonville Center
Wed 02:19:35 PM 30.4431 -81.3481 351° North 169 194 7,100  Level Jacksonville Center
Wed 02:20:29 PM 30.4869 -81.3569 350° North 170 196 7,100  Level Jacksonville Center
Wed 02:21:30 PM 30.5331 -81.3708 345° North 171 197 7,100  Level Jacksonville Center
Wed 02:22:40 PM 30.5811 -81.3797 351° North 169 194 7,100  Level Jacksonville Center
Wed 02:23:40 PM 30.6272 -81.3886 351° North 174 200 7,100  Level Jacksonville Center
Wed 02:24:40 PM 30.6733 -81.4000 348° North 174 200 7,100  Level Jacksonville Center
Wed 02:25:40 PM 30.7214 -81.4114 348° North 169 194 7,100 -50 Level Jacksonville Center
Wed 02:26:40 PM 30.7675 -81.4203 351° North 169 194 7,000 -50 Descending Jacksonville Center
Wed 02:27:40 PM 30.8156 -81.4292 351° North 169 194 7,000  Level Jacksonville Center
Wed 02:28:40 PM 30.8636 -81.4186 11° North 169 194 7,000  Level Jacksonville Center
Wed 02:29:40 PM 30.9092 -81.4083 11° North 164 189 7,000  Level Jacksonville Center
Wed 02:30:40 PM 30.9553 -81.4028 North 164 189 7,000  Level Jacksonville Center
Wed 02:31:40 PM 31.0053 -81.3947 North 164 189 7,000  Level Jacksonville Center
Wed 02:32:40 PM 31.0531 -81.3867 North 164 189 7,000  Level Jacksonville Center
Wed 02:33:40 PM 31.1053 -81.3761 10° North 164 189 7,000  Level Jacksonville Center
Wed 02:34:40 PM 31.1553 -81.3656 10° North 164 189 7,000  Level Jacksonville Center
Wed 02:35:40 PM 31.1969 -81.3600 North 164 189 7,000  Level Jacksonville Center
Wed 02:36:40 PM 31.2469 -81.3519 North 164 189 7,000  Level Jacksonville Center
Wed 02:37:40 PM 31.2928 -81.3439 North 164 189 7,000  Level Jacksonville Center
Wed 02:38:40 PM 31.3406 -81.3383 North 164 189 7,000  Level Jacksonville Center
Wed 02:39:40 PM 31.3822 -81.3303 North 164 189 7,000  Level Jacksonville Center
Wed 02:40:40 PM 31.4281 -81.3247 North 164 189 7,000  Level Jacksonville Center
Wed 02:41:40 PM 31.4781 -81.3139 10° North 164 189 7,000  Level Jacksonville Center
Wed 02:42:40 PM 31.5239 -81.3058 North 164 189 7,000  Level Jacksonville Center
Wed 02:43:40 PM 31.5697 -81.2978 North 164 189 7,000  Level Jacksonville Center
Wed 02:44:40 PM 31.6114 -81.2922 North 164 189 7,000  Level Jacksonville Center
Wed 02:45:40 PM 31.6614 -81.2817 10° North 159 183 7,000  Level Jacksonville Center
Wed 02:46:40 PM 31.7053 -81.2761 North 159 183 7,000  Level Jacksonville Center
Wed 02:47:40 PM 31.7511 -81.2678 North 159 183 7,000  Level Jacksonville Center
Wed 02:48:40 PM 31.7906 -81.2622 North 159 183 7,000 Level Jacksonville Center
Wed 02:50:00 PM 31.8477 -81.2491 11° North  Level FlightAware Approximate
Wed 02:57:00 PM 32.1475 -81.1886 342° North  Level FlightAware Approximate
Wed 02:58:00 PM 32.1891 -81.2042 342° North  Level FlightAware Approximate
Wed 02:59:00 PM 32.2307 -81.2198 342° North  Level FlightAware Approximate
Wed 03:00:00 PM 32.2722 -81.2358 339° North  Level FlightAware Approximate
Wed 03:01:00 PM 32.3129 -81.2543 339° North  Level FlightAware Approximate
Wed 03:02:00 PM 32.3537 -81.2728 339° North  Level FlightAware Approximate
Wed 03:03:00 PM 32.3945 -81.2913 339° North  Level FlightAware Approximate
Wed 03:03:28 PM 32.4575 -81.3292 339° North 171 197 7,100  Level Jacksonville Center
Wed 03:04:00 PM 32.4352 -81.3098 339° North  Level FlightAware Approximate
Wed 03:04:28 PM 32.5017 -81.3506 338° Northwest 171 197 7,100  Level Jacksonville Center
Wed 03:05:00 PM 32.4759 -81.3283 339° North  Level FlightAware Approximate
Wed 03:05:28 PM 32.5497 -81.3694 342° North 171 197 7,100  Level Jacksonville Center
Wed 03:06:00 PM 32.5167 -81.3468 339° North  Level FlightAware Approximate
Wed 03:06:28 PM 32.5897 -81.3886 338° Northwest 171 197 7,100  Level Jacksonville Center
Wed 03:07:00 PM 32.5574 -81.3654 339° North  Level FlightAware Approximate
Wed 03:07:28 PM 32.6275 -81.4053 340° North 171 197 7,100  Level Jacksonville Center
Wed 03:08:00 PM 32.5982 -81.3840 339° North  Level FlightAware Approximate
Wed 03:08:28 PM 32.6736 -81.4242 341° North 171 197 7,100  Level Jacksonville Center
Wed 03:09:28 PM 32.7219 -81.4406 344° North 171 197 7,100  Level Jacksonville Center
Wed 03:10:28 PM 32.7681 -81.4572 343° North 171 197 7,100  Level Jacksonville Center
Wed 03:11:28 PM 32.8119 -81.4764 340° North 171 197 7,100  Level Jacksonville Center
Wed 03:12:28 PM 32.8561 -81.4953 340° North 171 197 7,100  Level Jacksonville Center
Wed 03:14:00 PM 32.9191 -81.5223 340° North  Level FlightAware Approximate
Wed 03:21:00 PM 33.2076 -81.6422 341° North  Level FlightAware Approximate
Wed 03:22:00 PM 33.2489 -81.6592 341° North  Level FlightAware Approximate
Wed 03:23:00 PM 33.2901 -81.6762 341° North  Level FlightAware Approximate
Wed 03:24:00 PM 33.3314 -81.6933 341° North  Level FlightAware Approximate
Wed 03:25:00 PM 33.3726 -81.7103 341° North  Level FlightAware Approximate
Wed 03:26:00 PM 33.4139 -81.7274 341° North  Level FlightAware Approximate
Wed 03:27:00 PM 33.4551 -81.7445 341° North  Level FlightAware Approximate
Wed 03:28:00 PM 33.4964 -81.7616 341° North  Level FlightAware Approximate

Login

Don't have an account? Register now (free) for customized features, flight alerts, and more!